createdAt,value
2019-03-26T00:00:15.160Z,97.50
2019-03-26T00:01:15.202Z,96.74
2019-03-26T00:02:15.240Z,97.41
2019-03-26T00:03:15.273Z,97.78
2019-03-26T00:04:15.324Z,97.41
2019-03-26T00:05:15.347Z,97.69
2019-03-26T00:06:15.385Z,97.78
2019-03-26T00:07:15.422Z,97.41
2019-03-26T00:08:15.461Z,97.60
2019-03-26T00:09:15.496Z,98.35
2019-03-26T00:10:15.534Z,97.69
2019-03-26T00:11:15.579Z,97.88
2019-03-26T00:12:15.608Z,97.69
2019-03-26T00:13:15.646Z,97.41
2019-03-26T00:14:15.684Z,97.69
2019-03-26T00:15:15.722Z,97.50
2019-03-26T00:16:15.770Z,97.50
2019-03-26T00:17:15.797Z,97.50
2019-03-26T00:18:15.837Z,97.50
2019-03-26T00:19:15.871Z,98.07
2019-03-26T00:20:15.909Z,97.60
2019-03-26T00:21:15.947Z,97.31
2019-03-26T00:22:15.984Z,97.50
2019-03-26T00:23:16.024Z,98.07
2019-03-26T00:24:16.059Z,97.41
2019-03-26T00:25:16.097Z,97.50
2019-03-26T00:26:16.133Z,97.97
2019-03-26T00:27:16.171Z,97.88
2019-03-26T00:28:16.213Z,97.88
2019-03-26T00:29:16.249Z,97.78
2019-03-26T00:30:16.283Z,97.31
2019-03-26T00:31:16.320Z,97.78
2019-03-26T00:32:16.358Z,97.88
2019-03-26T00:33:16.396Z,97.97
2019-03-26T00:34:19.631Z,97.97
2019-03-26T00:35:16.473Z,97.41
2019-03-26T00:36:16.508Z,97.50
2019-03-26T00:37:16.547Z,97.60
2019-03-26T00:38:16.583Z,97.69
2019-03-26T00:39:16.622Z,97.31
2019-03-26T00:40:16.662Z,97.60
2019-03-26T00:41:16.697Z,98.07
2019-03-26T00:42:16.732Z,97.50
2019-03-26T00:43:16.773Z,97.31
2019-03-26T00:44:16.812Z,97.60
2019-03-26T00:45:16.895Z,97.31
2019-03-26T00:46:16.884Z,98.16
2019-03-26T00:47:16.921Z,97.97
2019-03-26T00:48:16.960Z,97.78
2019-03-26T00:49:16.998Z,98.07
2019-03-26T00:50:17.043Z,97.97
2019-03-26T00:51:17.073Z,97.60
2019-03-26T00:52:17.109Z,97.69
2019-03-26T00:53:17.148Z,97.50
2019-03-26T00:54:17.185Z,97.69
2019-03-26T00:55:22.386Z,99.11
2019-03-26T00:56:17.258Z,99.30
2019-03-26T00:57:17.346Z,98.35
2019-03-26T00:58:17.340Z,98.45
2019-03-26T00:59:17.376Z,97.97
2019-03-26T01:00:17.409Z,97.97
2019-03-26T01:01:17.447Z,97.97
2019-03-26T01:02:17.483Z,98.07
2019-03-26T01:03:17.522Z,98.64
2019-03-26T01:04:17.610Z,98.16
2019-03-26T01:05:17.599Z,98.35
2019-03-26T01:06:17.634Z,98.26
2019-03-26T01:07:17.683Z,98.26
2019-03-26T01:08:17.710Z,98.16
2019-03-26T01:09:17.747Z,98.45
2019-03-26T01:10:17.783Z,97.69
2019-03-26T01:11:17.822Z,98.45
2019-03-26T01:12:17.865Z,98.45
2019-03-26T01:13:17.898Z,98.64
2019-03-26T01:14:17.935Z,98.26
2019-03-26T01:15:17.971Z,98.45
2019-03-26T01:16:18.060Z,98.16
2019-03-26T01:17:18.047Z,98.35
2019-03-26T01:18:18.087Z,98.35
2019-03-26T01:19:18.124Z,98.45
2019-03-26T01:20:18.159Z,98.26
2019-03-26T01:21:18.201Z,98.73
2019-03-26T01:22:18.237Z,99.02
2019-03-26T01:23:18.274Z,97.97
2019-03-26T01:24:18.312Z,98.07
2019-03-26T01:25:18.349Z,98.73
2019-03-26T01:26:18.387Z,98.26
2019-03-26T01:27:18.438Z,98.35
2019-03-26T01:28:18.458Z,98.26
2019-03-26T01:29:18.499Z,97.97
2019-03-26T01:30:18.541Z,98.45
2019-03-26T01:31:18.572Z,98.54
2019-03-26T01:32:18.609Z,98.26
2019-03-26T01:33:18.649Z,98.16
2019-03-26T01:34:18.687Z,97.97
2019-03-26T01:35:18.721Z,97.88
2019-03-26T01:36:18.759Z,97.97
2019-03-26T01:37:18.797Z,98.02
2019-03-26T01:38:18.834Z,98.21
2019-03-26T01:39:18.887Z,98.02
2019-03-26T01:40:18.911Z,97.64
2019-03-26T01:41:18.946Z,97.74
2019-03-26T01:42:18.985Z,97.83
2019-03-26T01:43:19.024Z,98.02
2019-03-26T01:44:19.058Z,98.21
2019-03-26T01:45:19.097Z,97.64
2019-03-26T01:46:19.133Z,97.92
2019-03-26T01:47:19.172Z,97.64
2019-03-26T01:48:19.206Z,97.74
2019-03-26T01:49:19.247Z,97.45
2019-03-26T01:50:19.283Z,97.83
2019-03-26T01:51:19.321Z,97.26
2019-03-26T01:52:19.357Z,97.26
2019-03-26T01:53:20.452Z,97.92
2019-03-26T01:54:19.434Z,97.92
2019-03-26T01:55:19.469Z,97.92
2019-03-26T01:56:19.506Z,98.11
2019-03-26T01:57:19.542Z,98.11
2019-03-26T01:58:19.580Z,97.92
2019-03-26T01:59:19.618Z,97.74
2019-03-26T02:00:19.655Z,97.92
2019-03-26T02:01:19.698Z,97.26
2019-03-26T02:02:19.731Z,97.36
2019-03-26T02:03:19.765Z,97.45
2019-03-26T02:04:19.801Z,97.74
2019-03-26T02:05:19.847Z,97.26
2019-03-26T02:06:19.885Z,97.45
2019-03-26T02:07:19.914Z,98.02
2019-03-26T02:08:19.949Z,97.74
2019-03-26T02:09:20.040Z,97.64
2019-03-26T02:10:20.025Z,97.59
2019-03-26T02:11:20.062Z,98.21
2019-03-26T02:12:20.137Z,97.31
2019-03-26T02:13:20.138Z,97.69
2019-03-26T02:14:20.172Z,97.59
2019-03-26T02:15:20.215Z,97.59
2019-03-26T02:16:20.246Z,97.50
2019-03-26T02:17:20.288Z,97.02
2019-03-26T02:18:20.319Z,97.21
2019-03-26T02:19:20.358Z,97.59
2019-03-26T02:20:20.545Z,97.59
2019-03-26T02:21:20.432Z,97.50
2019-03-26T02:22:20.476Z,97.59
2019-03-26T02:23:20.507Z,97.40
2019-03-26T02:24:20.543Z,97.59
2019-03-26T02:25:20.580Z,96.73
2019-03-26T02:26:20.617Z,97.69
2019-03-26T02:27:20.654Z,97.12
2019-03-26T02:28:20.693Z,96.73
2019-03-26T02:29:20.727Z,96.92
2019-03-26T02:30:20.767Z,96.83
2019-03-26T02:31:20.802Z,96.92
2019-03-26T02:32:20.837Z,96.92
2019-03-26T02:33:20.876Z,96.83
2019-03-26T02:34:20.913Z,97.31
2019-03-26T02:35:20.949Z,96.83
2019-03-26T02:36:20.984Z,96.83
2019-03-26T02:37:21.021Z,96.92
2019-03-26T02:38:21.064Z,96.83
2019-03-26T02:39:21.095Z,96.55
2019-03-26T02:40:21.130Z,96.55
2019-03-26T02:41:21.177Z,97.02
2019-03-26T02:42:21.206Z,96.36
2019-03-26T02:43:21.245Z,96.92
2019-03-26T02:44:21.278Z,96.73
2019-03-26T02:45:21.335Z,96.92
2019-03-26T02:46:21.353Z,96.73
2019-03-26T02:47:21.390Z,97.40
2019-03-26T02:48:21.434Z,97.31
2019-03-26T02:49:21.462Z,96.73
2019-03-26T02:50:21.510Z,97.21
2019-03-26T02:51:21.538Z,96.83
2019-03-26T02:52:21.573Z,97.50
2019-03-26T02:53:21.611Z,97.40
2019-03-26T02:54:21.646Z,97.40
2019-03-26T02:55:21.687Z,97.36
2019-03-26T02:56:21.721Z,97.36
2019-03-26T02:57:21.759Z,98.02
2019-03-26T02:58:21.795Z,97.55
2019-03-26T02:59:21.836Z,97.17
2019-03-26T03:00:21.870Z,97.83
2019-03-26T03:01:21.909Z,97.74
2019-03-26T03:02:21.941Z,97.83
2019-03-26T03:03:21.997Z,98.02
2019-03-26T03:04:22.017Z,98.11
2019-03-26T03:05:35.190Z,97.92
2019-03-26T03:06:22.092Z,97.92
2019-03-26T03:07:22.133Z,98.30
2019-03-26T03:08:22.161Z,98.49
2019-03-26T03:09:22.199Z,98.78
2019-03-26T03:10:22.243Z,98.78
2019-03-26T03:11:22.279Z,99.06
2019-03-26T03:12:22.309Z,98.78
2019-03-26T03:13:22.356Z,99.06
2019-03-26T03:14:22.387Z,98.68
2019-03-26T03:15:22.424Z,99.06
2019-03-26T03:16:22.457Z,98.87
2019-03-26T03:17:22.494Z,98.68
2019-03-26T03:18:22.534Z,98.78
2019-03-26T03:19:22.569Z,98.87
2019-03-26T03:20:22.609Z,99.35
2019-03-26T03:21:22.643Z,98.87
2019-03-26T03:22:22.681Z,98.68
2019-03-26T03:23:22.720Z,98.30
2019-03-26T03:24:22.760Z,98.78
2019-03-26T03:25:22.793Z,98.97
2019-03-26T03:26:22.829Z,98.87
2019-03-26T03:27:22.866Z,98.49
2019-03-26T03:28:22.903Z,98.59
2019-03-26T03:29:22.941Z,98.68
2019-03-26T03:30:22.993Z,98.68
2019-03-26T03:31:23.017Z,98.78
2019-03-26T03:32:23.060Z,98.78
2019-03-26T03:33:23.101Z,98.68
2019-03-26T03:34:23.132Z,98.68
2019-03-26T03:35:23.165Z,99.35
2019-03-26T03:36:23.221Z,98.87
2019-03-26T03:37:23.266Z,98.49
2019-03-26T03:38:23.276Z,98.87
2019-03-26T03:39:23.316Z,98.87
2019-03-26T03:40:23.348Z,98.78
2019-03-26T03:41:23.385Z,98.87
2019-03-26T03:42:23.421Z,98.78
2019-03-26T03:43:23.459Z,98.78
2019-03-26T03:44:23.497Z,98.73
2019-03-26T03:45:23.533Z,99.30
2019-03-26T03:46:23.581Z,98.59
2019-03-26T03:47:23.609Z,99.06
2019-03-26T03:48:23.648Z,98.78
2019-03-26T03:49:23.693Z,98.68
2019-03-26T03:50:23.719Z,98.87
2019-03-26T03:51:23.760Z,98.78
2019-03-26T03:52:23.794Z,99.11
2019-03-26T03:53:23.836Z,98.78
2019-03-26T03:54:23.870Z,98.68
2019-03-26T03:55:23.909Z,98.78
2019-03-26T03:56:23.943Z,98.68
2019-03-26T03:57:23.980Z,98.78
2019-03-26T03:58:24.018Z,98.87
2019-03-26T03:59:24.061Z,99.68
2019-03-26T04:00:24.093Z,98.92
2019-03-26T04:01:24.130Z,98.73
2019-03-26T04:02:24.169Z,98.73
2019-03-26T04:03:24.207Z,98.73
2019-03-26T04:04:24.240Z,98.68
2019-03-26T04:05:24.299Z,98.45
2019-03-26T04:06:24.317Z,98.83
2019-03-26T04:07:24.356Z,99.02
2019-03-26T04:08:24.393Z,98.54
2019-03-26T04:09:24.427Z,98.73
2019-03-26T04:10:24.464Z,98.83
2019-03-26T04:11:24.502Z,98.92
2019-03-26T04:12:24.538Z,99.06
2019-03-26T04:13:24.576Z,99.02
2019-03-26T04:14:24.626Z,98.92
2019-03-26T04:15:24.651Z,98.73
2019-03-26T04:16:24.690Z,98.92
2019-03-26T04:17:24.724Z,98.97
2019-03-26T04:18:24.769Z,99.06
2019-03-26T04:19:24.798Z,98.83
2019-03-26T04:20:24.835Z,99.30
2019-03-26T04:21:24.874Z,99.02
2019-03-26T04:22:24.962Z,98.83
2019-03-26T04:23:24.948Z,98.92
2019-03-26T04:24:24.989Z,98.35
2019-03-26T04:25:25.029Z,98.92
2019-03-26T04:26:25.061Z,98.92
2019-03-26T04:27:25.105Z,99.21
2019-03-26T04:28:25.135Z,98.68
2019-03-26T04:29:25.177Z,98.68
2019-03-26T04:30:25.215Z,98.54
2019-03-26T04:31:25.249Z,98.87
2019-03-26T04:32:25.283Z,98.64
2019-03-26T04:33:25.329Z,99.21
2019-03-26T04:34:25.392Z,98.73
2019-03-26T04:35:25.432Z,98.92
2019-03-26T04:36:26.642Z,98.73
2019-03-26T04:37:25.475Z,99.06
2019-03-26T04:38:25.510Z,98.83
2019-03-26T04:39:25.559Z,98.35
2019-03-26T04:40:25.583Z,98.73
2019-03-26T04:41:25.621Z,99.02
2019-03-26T04:42:25.657Z,98.73
2019-03-26T04:43:25.704Z,98.92
2019-03-26T04:44:25.731Z,99.11
2019-03-26T04:45:25.775Z,98.73
2019-03-26T04:46:25.806Z,98.54
2019-03-26T04:47:25.843Z,98.54
2019-03-26T04:48:25.880Z,98.73
2019-03-26T04:49:25.919Z,99.02
2019-03-26T04:50:25.955Z,99.26
2019-03-26T04:51:25.993Z,98.73
2019-03-26T04:52:26.030Z,98.92
2019-03-26T04:53:26.069Z,98.97
2019-03-26T04:54:26.157Z,98.92
2019-03-26T04:55:26.141Z,98.35
2019-03-26T04:56:26.180Z,98.97
2019-03-26T04:57:26.215Z,99.02
2019-03-26T04:58:26.254Z,98.92
2019-03-26T04:59:26.293Z,98.68
2019-03-26T05:00:26.335Z,98.78
2019-03-26T05:01:26.365Z,99.02
2019-03-26T05:02:26.404Z,99.02
2019-03-26T05:03:26.442Z,99.02
2019-03-26T05:04:26.490Z,98.83
2019-03-26T05:05:26.520Z,99.02
2019-03-26T05:06:37.493Z,98.87
2019-03-26T05:07:26.590Z,99.21
2019-03-26T05:08:26.629Z,98.83
2019-03-26T05:09:26.665Z,98.92
2019-03-26T05:10:26.702Z,98.73
2019-03-26T05:11:26.740Z,99.06
2019-03-26T05:12:26.776Z,98.73
2019-03-26T05:13:26.831Z,98.73
2019-03-26T05:14:26.851Z,98.73
2019-03-26T05:15:26.901Z,99.02
2019-03-26T05:16:26.924Z,98.92
2019-03-26T05:17:26.963Z,98.92
2019-03-26T05:18:26.999Z,98.54
2019-03-26T05:19:27.037Z,98.83
2019-03-26T05:20:27.074Z,99.11
2019-03-26T05:21:27.112Z,98.92
2019-03-26T05:22:27.169Z,99.21
2019-03-26T05:23:27.202Z,98.83
2019-03-26T05:24:27.234Z,98.73
2019-03-26T05:25:27.262Z,98.83
2019-03-26T05:26:27.299Z,98.73
2019-03-26T05:27:27.342Z,98.83
2019-03-26T05:28:27.372Z,98.92
2019-03-26T05:29:27.415Z,98.73
2019-03-26T05:30:27.448Z,98.54
2019-03-26T05:31:27.486Z,98.73
2019-03-26T05:32:27.523Z,99.11
2019-03-26T05:33:27.559Z,98.73
2019-03-26T05:34:27.603Z,98.92
2019-03-26T05:35:27.637Z,99.02
2019-03-26T05:36:27.679Z,98.73
2019-03-26T05:37:27.717Z,98.92
2019-03-26T05:38:27.755Z,98.92
2019-03-26T05:39:27.785Z,98.83
2019-03-26T05:40:27.820Z,98.73
2019-03-26T05:41:27.858Z,99.02
2019-03-26T05:42:27.900Z,98.83
2019-03-26T05:43:27.934Z,98.73
2019-03-26T05:44:27.972Z,98.73
2019-03-26T05:45:28.007Z,99.11
2019-03-26T05:46:28.055Z,99.02
2019-03-26T05:47:28.084Z,98.73
2019-03-26T05:48:28.123Z,98.92
2019-03-26T05:49:28.156Z,98.73
2019-03-26T05:50:28.205Z,98.83
2019-03-26T05:51:28.237Z,98.73
2019-03-26T05:52:28.277Z,99.11
2019-03-26T05:53:28.305Z,98.73
2019-03-26T05:54:28.350Z,99.02
2019-03-26T05:55:28.382Z,98.83
2019-03-26T05:56:30.565Z,99.11
2019-03-26T05:57:28.457Z,98.64
2019-03-26T05:58:28.503Z,99.11
2019-03-26T05:59:28.532Z,98.64
2019-03-26T06:00:28.579Z,99.02
2019-03-26T06:01:28.607Z,99.11
2019-03-26T06:02:28.643Z,99.11
2019-03-26T06:03:28.681Z,98.73
2019-03-26T06:04:28.718Z,98.26
2019-03-26T06:05:28.755Z,98.45
2019-03-26T06:06:28.794Z,99.02
2019-03-26T06:07:31.197Z,98.83
2019-03-26T06:08:28.876Z,98.54
2019-03-26T06:09:28.905Z,98.73
2019-03-26T06:10:28.943Z,98.83
2019-03-26T06:11:28.981Z,98.92
2019-03-26T06:12:29.021Z,98.45
2019-03-26T06:13:29.056Z,98.16
2019-03-26T06:14:29.103Z,98.35
2019-03-26T06:15:29.132Z,99.02
2019-03-26T06:16:38.230Z,98.35
2019-03-26T06:17:29.214Z,98.54
2019-03-26T06:18:29.242Z,99.11
2019-03-26T06:19:29.301Z,98.92
2019-03-26T06:20:29.317Z,98.35
2019-03-26T06:21:29.355Z,98.45
2019-03-26T06:22:29.395Z,98.07
2019-03-26T06:23:29.430Z,98.54
2019-03-26T06:24:29.467Z,98.54
2019-03-26T06:25:29.506Z,98.92
2019-03-26T06:26:29.551Z,98.73
2019-03-26T06:27:29.581Z,98.35
2019-03-26T06:28:29.618Z,99.30
2019-03-26T06:29:29.655Z,98.07
2019-03-26T06:30:29.695Z,97.88
2019-03-26T06:31:29.739Z,98.16
2019-03-26T06:32:29.767Z,98.45
2019-03-26T06:33:29.814Z,98.26
2019-03-26T06:34:29.844Z,98.12
2019-03-26T06:35:29.882Z,98.50
2019-03-26T06:36:29.926Z,98.12
2019-03-26T06:37:29.955Z,98.40
2019-03-26T06:38:29.993Z,98.31
2019-03-26T06:39:30.033Z,98.31
2019-03-26T06:40:30.132Z,98.02
2019-03-26T06:41:30.111Z,97.83
2019-03-26T06:42:30.145Z,98.40
2019-03-26T06:43:30.181Z,98.26
2019-03-26T06:44:30.217Z,97.55
2019-03-26T06:45:30.255Z,98.54
2019-03-26T06:46:30.294Z,98.16
2019-03-26T06:47:30.331Z,97.97
2019-03-26T06:48:30.369Z,98.07
2019-03-26T06:49:30.415Z,97.78
2019-03-26T06:50:30.446Z,97.50
2019-03-26T06:51:30.483Z,98.26
2019-03-26T06:52:30.519Z,97.78
2019-03-26T06:53:30.556Z,98.07
2019-03-26T06:54:30.594Z,97.97
2019-03-26T06:55:30.637Z,98.54
2019-03-26T06:56:30.669Z,97.97
2019-03-26T06:57:35.926Z,98.16
2019-03-26T06:58:30.750Z,97.97
2019-03-26T06:59:30.786Z,97.69
2019-03-26T07:00:30.821Z,97.78
2019-03-26T07:01:30.863Z,97.50
2019-03-26T07:02:30.900Z,97.69
2019-03-26T07:03:30.934Z,97.88
2019-03-26T07:04:30.970Z,97.22
2019-03-26T07:05:31.009Z,97.41
2019-03-26T07:06:31.047Z,97.78
2019-03-26T07:07:32.079Z,97.69
2019-03-26T07:08:31.121Z,97.22
2019-03-26T07:09:31.159Z,96.93
2019-03-26T07:10:31.198Z,97.22
2019-03-26T07:11:31.236Z,97.60
2019-03-26T07:12:31.276Z,97.97
2019-03-26T07:13:31.310Z,97.88
2019-03-26T07:14:31.348Z,96.93
2019-03-26T07:15:31.386Z,97.22
2019-03-26T07:16:31.433Z,96.64
2019-03-26T07:17:31.461Z,97.22
2019-03-26T07:18:31.499Z,96.74
2019-03-26T07:19:31.536Z,97.02
2019-03-26T07:20:31.577Z,96.45
2019-03-26T07:21:31.611Z,96.26
2019-03-26T07:22:31.665Z,96.36
2019-03-26T07:23:31.688Z,96.08
2019-03-26T07:24:31.725Z,96.36
2019-03-26T07:25:31.761Z,95.89
2019-03-26T07:26:31.797Z,96.36
2019-03-26T07:27:31.842Z,96.64
2019-03-26T07:28:31.872Z,96.45
2019-03-26T07:29:31.913Z,96.55
2019-03-26T07:30:31.948Z,96.17
2019-03-26T07:31:32.002Z,96.45
2019-03-26T07:32:32.026Z,96.26
2019-03-26T07:33:32.061Z,96.17
2019-03-26T07:34:32.114Z,96.36
2019-03-26T07:35:32.137Z,96.45
2019-03-26T07:36:32.173Z,96.26
2019-03-26T07:37:44.488Z,96.26
2019-03-26T07:38:32.256Z,96.17
2019-03-26T07:39:32.294Z,96.55
2019-03-26T07:40:32.323Z,96.74
2019-03-26T07:41:32.361Z,96.64
2019-03-26T07:42:32.405Z,96.17
2019-03-26T07:43:32.495Z,96.36
2019-03-26T07:44:32.472Z,96.36
2019-03-26T07:45:32.509Z,96.64
2019-03-26T07:46:32.592Z,96.55
2019-03-26T07:47:32.586Z,96.36
2019-03-26T07:48:32.627Z,95.89
2019-03-26T07:49:32.662Z,95.98
2019-03-26T07:50:32.698Z,95.84
2019-03-26T07:51:32.744Z,96.22
2019-03-26T07:52:32.777Z,96.12
2019-03-26T07:53:32.817Z,95.27
2019-03-26T07:54:32.849Z,95.17
2019-03-26T07:55:32.886Z,95.08
2019-03-26T07:56:32.925Z,94.18
2019-03-26T07:57:32.968Z,94.32
2019-03-26T07:58:33.413Z,94.93
2019-03-26T07:59:33.035Z,94.74
2019-03-26T08:00:33.074Z,94.32
2019-03-26T08:01:33.111Z,94.79
2019-03-26T08:02:33.151Z,94.98
2019-03-26T08:03:33.186Z,94.70
2019-03-26T08:04:33.275Z,94.70
2019-03-26T08:05:33.279Z,94.70
2019-03-26T08:06:33.299Z,93.99
2019-03-26T08:07:33.350Z,94.27
2019-03-26T08:08:33.375Z,94.74
2019-03-26T08:09:33.530Z,94.56
2019-03-26T08:10:33.523Z,94.84
2019-03-26T08:11:33.502Z,94.65
2019-03-26T08:12:33.524Z,95.03
2019-03-26T08:13:33.596Z,94.37
2019-03-26T08:14:33.603Z,94.98
2019-03-26T08:15:33.675Z,95.08
2019-03-26T08:16:33.685Z,94.70
2019-03-26T08:17:33.734Z,94.23
2019-03-26T08:18:33.752Z,93.94
2019-03-26T08:19:33.789Z,94.98
2019-03-26T08:20:33.827Z,94.89
2019-03-26T08:21:33.879Z,95.08
2019-03-26T08:22:33.903Z,94.70
2019-03-26T08:23:33.958Z,94.89
2019-03-26T08:24:33.979Z,94.79
2019-03-26T08:25:34.174Z,94.89
2019-03-26T08:26:34.053Z,94.89
2019-03-26T08:27:34.091Z,94.32
2019-03-26T08:28:34.127Z,94.89
2019-03-26T08:29:34.164Z,94.46
2019-03-26T08:30:34.203Z,93.79
2019-03-26T08:31:34.243Z,93.79
2019-03-26T08:32:36.915Z,93.51
2019-03-26T08:33:34.321Z,94.18
2019-03-26T08:34:34.354Z,93.79
2019-03-26T08:35:34.429Z,93.79
2019-03-26T08:36:34.433Z,93.56
2019-03-26T08:37:34.469Z,92.94
2019-03-26T08:38:34.507Z,93.99
2019-03-26T08:39:34.551Z,92.90
2019-03-26T08:40:34.583Z,93.04
2019-03-26T08:41:34.622Z,93.13
2019-03-26T08:42:34.662Z,93.89
2019-03-26T08:43:34.696Z,93.51
2019-03-26T08:44:34.735Z,93.70
2019-03-26T08:45:34.772Z,93.32
2019-03-26T08:46:34.812Z,93.23
2019-03-26T08:47:34.850Z,93.41
2019-03-26T08:48:34.890Z,93.23
2019-03-26T08:49:34.927Z,93.41
2019-03-26T08:50:34.966Z,93.60
2019-03-26T08:51:35.010Z,93.04
2019-03-26T08:52:35.039Z,93.13
2019-03-26T08:53:35.078Z,92.85
2019-03-26T08:54:35.125Z,93.60
2019-03-26T08:55:35.155Z,93.13
2019-03-26T08:56:35.193Z,93.13
2019-03-26T08:57:35.235Z,93.18
2019-03-26T08:58:35.269Z,92.99
2019-03-26T08:59:35.311Z,93.04
2019-03-26T09:00:35.367Z,92.71
2019-03-26T09:01:35.386Z,92.90
2019-03-26T09:02:35.434Z,92.80
2019-03-26T09:03:35.468Z,93.84
2019-03-26T09:04:35.502Z,92.80
2019-03-26T09:05:35.535Z,92.99
2019-03-26T09:06:35.574Z,92.94
2019-03-26T09:07:35.613Z,93.23
2019-03-26T09:08:35.651Z,92.46
2019-03-26T09:09:35.689Z,93.41
2019-03-26T09:10:35.730Z,92.85
2019-03-26T09:11:35.772Z,91.99
2019-03-26T09:12:35.805Z,92.27
2019-03-26T09:13:35.854Z,92.27
2019-03-26T09:14:35.881Z,91.80
2019-03-26T09:15:35.926Z,91.99
2019-03-26T09:16:35.960Z,92.37
2019-03-26T09:17:35.993Z,92.85
2019-03-26T09:18:36.050Z,93.32
2019-03-26T09:19:36.081Z,91.89
2019-03-26T09:20:36.110Z,91.13
2019-03-26T09:21:36.149Z,91.33
2019-03-26T09:22:36.188Z,91.42
2019-03-26T09:23:36.226Z,91.42
2019-03-26T09:24:36.266Z,91.42
2019-03-26T09:25:36.313Z,91.71
2019-03-26T09:26:36.342Z,91.61
2019-03-26T09:27:36.390Z,91.13
2019-03-26T09:28:36.415Z,91.13
2019-03-26T09:29:36.470Z,90.94
2019-03-26T09:30:36.493Z,91.71
2019-03-26T09:31:36.532Z,91.89
2019-03-26T09:32:36.570Z,92.75
2019-03-26T09:33:36.608Z,92.66
2019-03-26T09:34:36.696Z,92.85
2019-03-26T09:35:36.684Z,92.85
2019-03-26T09:36:36.723Z,92.08
2019-03-26T09:37:36.765Z,91.71
2019-03-26T09:38:39.007Z,91.42
2019-03-26T09:39:38.362Z,91.61
2019-03-26T09:40:36.876Z,91.04
2019-03-26T09:41:36.922Z,90.28
2019-03-26T09:42:36.957Z,89.37
2019-03-26T09:43:36.992Z,89.94
2019-03-26T09:44:37.042Z,90.33
2019-03-26T09:45:37.067Z,90.00
2019-03-26T09:46:37.107Z,89.47
2019-03-26T09:47:37.144Z,90.14
2019-03-26T09:48:37.232Z,90.42
2019-03-26T09:49:37.231Z,89.94
2019-03-26T09:50:37.261Z,89.37
2019-03-26T09:51:37.298Z,89.66
2019-03-26T09:52:37.336Z,89.28
2019-03-26T09:53:37.376Z,89.18
2019-03-26T09:54:37.496Z,89.56
2019-03-26T09:55:37.455Z,89.00
2019-03-26T09:56:37.491Z,88.04
2019-03-26T09:57:37.530Z,88.71
2019-03-26T09:58:37.571Z,88.90
2019-03-26T09:59:37.608Z,89.09
2019-03-26T10:00:37.783Z,88.13
2019-03-26T10:01:37.703Z,87.47
2019-03-26T10:02:37.732Z,87.76
2019-03-26T10:03:37.761Z,88.42
2019-03-26T10:04:37.806Z,89.37
2019-03-26T10:05:37.836Z,90.14
2019-03-26T10:06:37.876Z,89.47
2019-03-26T10:07:37.915Z,89.09
2019-03-26T10:08:51.504Z,89.09
2019-03-26T10:09:37.993Z,88.33
2019-03-26T10:10:38.029Z,87.85
2019-03-26T10:11:38.075Z,88.56
2019-03-26T10:12:38.107Z,89.04
2019-03-26T10:13:38.148Z,88.75
2019-03-26T10:14:38.189Z,87.46
2019-03-26T10:15:38.224Z,86.04
2019-03-26T10:16:38.259Z,85.37
2019-03-26T10:17:38.303Z,86.46
2019-03-26T10:18:38.340Z,85.51
2019-03-26T10:19:38.380Z,83.61
2019-03-26T10:20:38.417Z,83.03
2019-03-26T10:21:38.458Z,82.21
2019-03-26T10:22:38.503Z,81.89
2019-03-26T10:23:38.535Z,82.18
2019-03-26T10:24:38.575Z,82.08
2019-03-26T10:25:38.615Z,81.84
2019-03-26T10:26:38.656Z,82.98
2019-03-26T10:27:38.693Z,82.31
2019-03-26T10:28:38.734Z,80.31
2019-03-26T10:29:38.774Z,78.69
2019-03-26T10:30:38.822Z,78.78
2019-03-26T10:31:38.850Z,78.46
2019-03-26T10:32:38.889Z,78.27
2019-03-26T10:33:38.930Z,78.75
2019-03-26T10:34:38.978Z,79.99
2019-03-26T10:35:39.010Z,79.80
2019-03-26T10:36:41.446Z,78.65
2019-03-26T10:37:39.090Z,78.37
2019-03-26T10:38:39.129Z,78.56
2019-03-26T10:39:39.170Z,78.75
2019-03-26T10:40:39.208Z,79.22
2019-03-26T10:41:39.253Z,78.94
2019-03-26T10:42:39.290Z,79.51
2019-03-26T10:43:39.329Z,79.70
2019-03-26T10:44:39.369Z,79.51
2019-03-26T10:45:39.410Z,79.89
2019-03-26T10:46:39.448Z,78.75
2019-03-26T10:47:39.498Z,78.59
2019-03-26T10:48:39.529Z,78.78
2019-03-26T10:49:39.575Z,77.93
2019-03-26T10:50:39.609Z,77.45
2019-03-26T10:51:39.650Z,77.74
2019-03-26T10:52:39.696Z,77.32
2019-03-26T10:53:39.727Z,77.93
2019-03-26T10:54:39.790Z,77.45
2019-03-26T10:55:39.819Z,77.64
2019-03-26T10:56:39.852Z,77.26
2019-03-26T10:57:39.889Z,77.07
2019-03-26T10:58:39.929Z,75.93
2019-03-26T10:59:39.978Z,75.26
2019-03-26T11:00:40.016Z,75.01
2019-03-26T11:01:40.100Z,75.01
2019-03-26T11:02:40.092Z,75.20
2019-03-26T11:03:40.133Z,75.87
2019-03-26T11:04:40.172Z,74.73
2019-03-26T11:05:40.215Z,73.45
2019-03-26T11:06:40.258Z,74.35
2019-03-26T11:07:42.687Z,75.01
2019-03-26T11:08:40.334Z,75.78
2019-03-26T11:09:40.374Z,75.16
2019-03-26T11:10:40.417Z,75.36
2019-03-26T11:11:40.457Z,76.21
2019-03-26T11:12:40.497Z,76.21
2019-03-26T11:13:40.539Z,77.26
2019-03-26T11:14:40.579Z,77.26
2019-03-26T11:15:40.629Z,77.87
2019-03-26T11:16:40.660Z,77.01
2019-03-26T11:17:40.709Z,75.87
2019-03-26T11:18:40.743Z,75.01
2019-03-26T11:19:40.782Z,74.44
2019-03-26T11:20:40.823Z,75.40
2019-03-26T11:21:40.873Z,76.77
2019-03-26T11:22:40.966Z,76.86
2019-03-26T11:23:40.947Z,74.82
2019-03-26T11:24:40.989Z,74.77
2019-03-26T11:25:41.033Z,74.96
2019-03-26T11:26:41.072Z,74.06
2019-03-26T11:27:41.111Z,74.92
2019-03-26T11:28:41.164Z,74.54
2019-03-26T11:29:41.305Z,74.35
2019-03-26T11:30:41.234Z,74.82
2019-03-26T11:31:41.272Z,74.44
2019-03-26T11:32:41.313Z,74.50
2019-03-26T11:33:41.352Z,75.87
2019-03-26T11:34:41.399Z,76.35
2019-03-26T11:35:41.461Z,77.11
2019-03-26T11:36:41.489Z,76.54
2019-03-26T11:37:41.518Z,74.92
2019-03-26T11:38:41.561Z,74.79
2019-03-26T11:39:41.597Z,74.31
2019-03-26T11:40:41.643Z,74.79
2019-03-26T11:41:41.679Z,75.45
2019-03-26T11:42:41.727Z,76.03
2019-03-26T11:43:41.759Z,75.84
2019-03-26T11:44:41.804Z,75.36
2019-03-26T11:45:41.849Z,74.98
2019-03-26T11:46:41.901Z,74.69
2019-03-26T11:47:41.924Z,74.50
2019-03-26T11:48:41.963Z,74.12
2019-03-26T11:49:42.005Z,74.69
2019-03-26T11:50:42.059Z,75.07
2019-03-26T11:51:42.088Z,74.40
2019-03-26T11:52:42.126Z,74.79
2019-03-26T11:53:42.169Z,75.26
2019-03-26T11:54:42.213Z,74.21
2019-03-26T11:55:42.248Z,75.36
2019-03-26T11:56:42.336Z,75.55
2019-03-26T11:57:42.329Z,74.69
2019-03-26T11:58:42.373Z,75.40
2019-03-26T11:59:42.421Z,75.30
2019-03-26T12:00:42.454Z,75.30
2019-03-26T12:01:42.490Z,75.30
2019-03-26T12:02:42.562Z,74.69
2019-03-26T12:03:42.592Z,75.55
2019-03-26T12:04:42.613Z,75.74
2019-03-26T12:05:42.675Z,75.93
2019-03-26T12:06:42.694Z,76.79
2019-03-26T12:07:43.127Z,77.13
2019-03-26T12:08:42.775Z,77.70
2019-03-26T12:09:46.527Z,78.65
2019-03-26T12:10:42.857Z,78.65
2019-03-26T12:11:42.905Z,79.03
2019-03-26T12:12:42.943Z,79.13
2019-03-26T12:13:42.977Z,78.17
2019-03-26T12:14:43.126Z,78.78
2019-03-26T12:15:43.057Z,77.55
2019-03-26T12:16:43.109Z,78.31
2019-03-26T12:17:43.144Z,77.93
2019-03-26T12:18:43.181Z,78.12
2019-03-26T12:19:43.219Z,77.64
2019-03-26T12:20:43.263Z,78.03
2019-03-26T12:21:43.304Z,77.42
2019-03-26T12:22:43.344Z,77.89
2019-03-26T12:23:43.388Z,78.65
2019-03-26T12:24:43.422Z,79.60
2019-03-26T12:25:43.477Z,78.85
2019-03-26T12:26:43.511Z,79.03
2019-03-26T12:27:43.549Z,78.65
2019-03-26T12:28:43.591Z,78.46
2019-03-26T12:29:43.624Z,78.37
2019-03-26T12:30:43.662Z,78.75
2019-03-26T12:31:43.707Z,78.65
2019-03-26T12:32:43.741Z,78.94
2019-03-26T12:33:43.789Z,79.70
2019-03-26T12:34:43.824Z,80.18
2019-03-26T12:35:43.866Z,79.32
2019-03-26T12:36:43.903Z,79.60
2019-03-26T12:37:43.940Z,79.60
2019-03-26T12:38:43.984Z,80.27
2019-03-26T12:39:44.412Z,80.27
2019-03-26T12:40:44.062Z,80.27
2019-03-26T12:41:44.101Z,79.80
2019-03-26T12:42:44.144Z,80.27
2019-03-26T12:43:44.182Z,80.94
2019-03-26T12:44:44.221Z,80.46
2019-03-26T12:45:44.311Z,80.55
2019-03-26T12:46:44.384Z,79.89
2019-03-26T12:47:44.347Z,79.99
2019-03-26T12:48:44.397Z,79.70
2019-03-26T12:49:44.436Z,79.60
2019-03-26T12:50:44.460Z,79.60
2019-03-26T12:51:44.516Z,79.99
2019-03-26T12:52:44.591Z,80.08